createdAt,value
2018-09-20T00:01:16.596Z,99769.38
2018-09-20T00:03:45.511Z,99755.33
2018-09-20T00:06:14.129Z,99760.13
2018-09-20T00:08:42.929Z,99761.45
2018-09-20T00:11:11.710Z,99758.33
2018-09-20T00:13:40.453Z,99765.64
2018-09-20T00:16:09.219Z,99772.60
2018-09-20T00:18:39.172Z,99756.30
2018-09-20T00:21:08.430Z,99601.66
2018-09-20T00:23:37.356Z,99729.52
2018-09-20T00:26:06.723Z,99727.84
2018-09-20T00:28:35.445Z,99689.89
2018-09-20T00:31:04.374Z,99718.73
2018-09-20T00:33:33.892Z,99710.70
2018-09-20T00:36:02.492Z,99704.20
2018-09-20T00:38:31.321Z,99703.95
2018-09-20T00:41:00.022Z,99707.86
2018-09-20T00:43:28.964Z,99718.02
2018-09-20T00:45:58.093Z,99713.93
2018-09-20T00:48:27.100Z,99716.45
2018-09-20T00:50:58.634Z,99707.08
2018-09-20T00:53:27.529Z,99704.02
2018-09-20T00:55:57.126Z,99700.29
2018-09-20T00:58:26.827Z,99691.59
2018-09-20T01:00:55.810Z,99681.75
2018-09-20T01:03:24.707Z,99674.59
2018-09-20T01:05:53.581Z,99665.29
2018-09-20T01:08:22.632Z,99653.08
2018-09-20T01:10:51.389Z,99636.67
2018-09-20T01:13:21.350Z,99628.48
2018-09-20T01:15:50.280Z,99608.53
2018-09-20T01:18:18.911Z,99615.81
2018-09-20T01:20:47.499Z,99618.67
2018-09-20T01:23:16.167Z,99620.35
2018-09-20T01:25:44.808Z,99483.91
2018-09-20T01:28:13.762Z,99607.68
2018-09-20T01:30:42.438Z,99602.20
2018-09-20T01:33:11.287Z,99591.77
2018-09-20T01:35:40.047Z,99583.13
2018-09-20T01:38:08.869Z,99566.44
2018-09-20T01:40:37.525Z,99553.52
2018-09-20T01:43:06.511Z,99547.05
2018-09-20T01:45:35.237Z,99537.44
2018-09-20T01:48:04.051Z,99515.95
2018-09-20T01:50:33.046Z,99517.48
2018-09-20T01:53:01.869Z,99516.16
2018-09-20T01:55:30.641Z,99506.44
2018-09-20T01:57:59.348Z,99491.90
2018-09-20T02:00:28.153Z,99474.38
2018-09-20T02:02:56.909Z,99466.14
2018-09-20T02:05:25.867Z,99471.64
2018-09-20T02:07:54.658Z,99465.52
2018-09-20T02:10:23.617Z,99458.64
2018-09-20T02:12:52.430Z,99452.87
2018-09-20T02:15:21.384Z,99447.42
2018-09-20T02:17:50.344Z,99429.83
2018-09-20T02:20:19.019Z,99421.91
2018-09-20T02:22:47.728Z,99428.16
2018-09-20T02:25:16.535Z,99441.24
2018-09-20T02:27:45.375Z,99442.33
2018-09-20T02:30:14.016Z,99432.64
2018-09-20T02:32:42.792Z,99433.20
2018-09-20T02:35:12.867Z,99435.89
2018-09-20T02:37:41.553Z,99416.97
2018-09-20T02:40:10.369Z,99412.41
2018-09-20T02:42:39.143Z,99397.77
2018-09-20T02:45:08.195Z,99396.48
2018-09-20T02:47:37.071Z,99387.43
2018-09-20T02:50:05.767Z,99379.35
2018-09-20T02:52:34.498Z,99372.42
2018-09-20T02:55:03.368Z,99360.39
2018-09-20T02:57:32.159Z,99350.15
2018-09-20T03:00:01.758Z,99343.99
2018-09-20T03:02:30.755Z,99338.50
2018-09-20T03:04:59.464Z,99335.65
2018-09-20T03:07:28.606Z,99328.41
2018-09-20T03:09:57.556Z,99310.87
2018-09-20T03:12:26.191Z,99330.05
2018-09-20T03:14:55.126Z,99339.54
2018-09-20T03:17:23.916Z,99345.95
2018-09-20T03:19:53.016Z,99335.08
2018-09-20T03:22:22.101Z,99337.90
2018-09-20T03:24:52.104Z,99337.55
2018-09-20T03:27:21.192Z,99326.00
2018-09-20T03:29:50.201Z,99312.14
2018-09-20T03:32:18.998Z,99312.86
2018-09-20T03:34:47.793Z,99318.24
2018-09-20T03:37:16.675Z,99312.00
2018-09-20T03:39:45.581Z,99304.46
2018-09-20T03:42:14.538Z,99292.43
2018-09-20T03:44:43.314Z,99300.91
2018-09-20T03:47:12.027Z,99309.74
2018-09-20T03:49:40.755Z,99296.19
2018-09-20T03:52:09.654Z,99285.31
2018-09-20T03:54:43.931Z,99272.44
2018-09-20T03:57:12.605Z,99265.86
2018-09-20T03:59:41.429Z,99262.40
2018-09-20T04:02:10.428Z,99255.83
2018-09-20T04:04:39.083Z,99254.37
2018-09-20T04:07:08.069Z,99243.64
2018-09-20T04:09:36.940Z,99237.56
2018-09-20T04:12:05.553Z,99223.64
2018-09-20T04:14:34.816Z,99216.91
2018-09-20T04:17:03.741Z,99209.17
2018-09-20T04:19:32.568Z,99203.58
2018-09-20T04:22:01.292Z,99204.56
2018-09-20T04:24:30.007Z,99200.78
2018-09-20T04:26:58.774Z,99202.64
2018-09-20T04:29:28.537Z,99198.05
2018-09-20T04:31:57.492Z,99193.59
2018-09-20T04:34:26.255Z,99192.11
2018-09-20T04:36:55.109Z,99183.20
2018-09-20T04:39:23.971Z,99167.78
2018-09-20T04:41:53.109Z,99156.21
2018-09-20T04:44:22.073Z,99151.92
2018-09-20T04:46:50.817Z,99149.78
2018-09-20T04:49:19.580Z,99151.31
2018-09-20T04:51:48.550Z,99144.03
2018-09-20T04:54:17.390Z,99139.20
2018-09-20T04:56:46.023Z,99135.58
2018-09-20T04:59:14.968Z,99132.91
2018-09-20T05:01:43.988Z,99137.39
2018-09-20T05:04:12.770Z,99125.61
2018-09-20T05:06:41.616Z,99120.32
2018-09-20T05:09:13.167Z,99116.81
2018-09-20T05:11:42.746Z,99116.47
2018-09-20T05:14:11.874Z,99113.00
2018-09-20T05:16:41.205Z,99097.05
2018-09-20T05:19:09.788Z,99095.06
2018-09-20T05:21:38.795Z,99097.53
2018-09-20T05:24:07.753Z,99089.88
2018-09-20T05:26:36.514Z,99091.05
2018-09-20T05:29:05.216Z,99084.39
2018-09-20T05:31:34.294Z,99074.08
2018-09-20T05:34:03.109Z,99079.72
2018-09-20T05:36:31.962Z,99080.03
2018-09-20T05:39:00.694Z,99067.91
2018-09-20T05:41:29.847Z,99057.25
2018-09-20T05:43:58.605Z,99048.09
2018-09-20T05:46:27.610Z,99041.08
2018-09-20T05:48:56.340Z,99040.91
2018-09-20T05:51:25.038Z,99032.40
2018-09-20T05:53:53.769Z,99028.73
2018-09-20T05:56:23.189Z,99023.88
2018-09-20T05:58:51.856Z,99034.47
2018-09-20T06:01:20.743Z,99022.78
2018-09-20T06:03:49.727Z,99018.13
2018-09-20T06:06:18.637Z,99017.41
2018-09-20T06:08:47.475Z,99010.76
2018-09-20T06:11:16.417Z,98999.47
2018-09-20T06:13:45.340Z,99006.27
2018-09-20T06:16:14.995Z,98994.48
2018-09-20T06:18:43.821Z,98996.97
2018-09-20T06:21:12.924Z,98999.47
2018-09-20T06:23:41.667Z,99001.63
2018-09-20T06:26:10.443Z,98902.28
2018-09-20T06:28:39.438Z,98983.34
2018-09-20T06:31:08.137Z,98984.50
2018-09-20T06:33:37.051Z,98974.03
2018-09-20T06:36:06.030Z,98976.19
2018-09-20T06:38:35.131Z,98961.02
2018-09-20T06:41:04.191Z,98972.98
2018-09-20T06:43:33.226Z,98969.81
2018-09-20T06:46:02.111Z,98970.64
2018-09-20T06:48:31.684Z,98957.29
2018-09-20T06:51:00.392Z,98948.97
2018-09-20T06:53:29.064Z,98954.56
2018-09-20T06:55:57.736Z,98953.17
2018-09-20T06:58:26.545Z,98959.66
2018-09-20T07:00:55.373Z,98956.67
2018-09-20T07:03:24.308Z,98950.07
2018-09-20T07:05:52.949Z,98947.53
2018-09-20T07:08:21.742Z,98953.50
2018-09-20T07:10:50.513Z,98952.16
2018-09-20T07:13:20.923Z,98939.95
2018-09-20T07:15:51.102Z,98942.97
2018-09-20T07:18:21.351Z,98941.44
2018-09-20T07:20:50.103Z,98939.07
2018-09-20T07:23:21.394Z,98936.89
2018-09-20T07:25:50.350Z,98932.39
2018-09-20T07:28:19.452Z,98932.52
2018-09-20T07:30:48.316Z,98933.81
2018-09-20T07:33:18.070Z,98931.98
2018-09-20T07:35:46.701Z,98937.95
2018-09-20T07:38:15.626Z,98932.75
2018-09-20T07:40:44.650Z,98930.57
2018-09-20T07:43:13.630Z,98930.89
2018-09-20T07:45:42.504Z,98933.85
2018-09-20T07:48:11.385Z,98936.48
2018-09-20T07:50:40.192Z,98930.98
2018-09-20T07:53:08.906Z,98929.09
2018-09-20T07:55:38.021Z,98926.25
2018-09-20T07:58:06.970Z,98933.05
2018-09-20T08:00:36.003Z,98939.50
2018-09-20T08:03:04.843Z,98947.42
2018-09-20T08:05:33.991Z,98946.39
2018-09-20T08:08:02.743Z,98924.59
2018-09-20T08:10:31.635Z,98922.88
2018-09-20T08:13:00.578Z,98920.23
2018-09-20T08:15:29.519Z,98921.63
2018-09-20T08:17:58.451Z,98919.80
2018-09-20T08:20:27.107Z,98927.61
2018-09-20T08:22:55.934Z,98921.59
2018-09-20T08:25:24.926Z,98923.02
2018-09-20T08:27:54.018Z,98917.54
2018-09-20T08:30:22.736Z,98902.30
2018-09-20T08:32:51.540Z,98909.39
2018-09-20T08:35:20.234Z,98889.33
2018-09-20T08:37:49.336Z,98894.95
2018-09-20T08:40:18.446Z,98900.29
2018-09-20T08:42:47.524Z,98889.45
2018-09-20T08:45:17.340Z,98897.86
2018-09-20T08:48:18.388Z,98894.89
2018-09-20T08:50:47.120Z,98889.83
2018-09-20T08:53:15.857Z,98891.42
2018-09-20T08:55:44.592Z,98875.20
2018-09-20T08:58:13.381Z,98881.72
2018-09-20T09:00:42.552Z,98890.45
2018-09-20T09:03:11.443Z,98889.51
2018-09-20T09:05:40.235Z,98890.67
2018-09-20T09:08:09.212Z,98887.34
2018-09-20T09:10:38.106Z,98881.49
2018-09-20T09:13:07.177Z,98881.73
2018-09-20T09:15:35.930Z,98879.23
2018-09-20T09:18:04.836Z,98867.07
2018-09-20T09:20:33.437Z,98875.20
2018-09-20T09:23:02.971Z,98885.20
2018-09-20T09:25:31.802Z,98887.19
2018-09-20T09:28:00.759Z,98889.23
2018-09-20T09:30:29.663Z,98882.50
2018-09-20T09:32:58.656Z,98880.89
2018-09-20T09:35:27.826Z,98882.86
2018-09-20T09:37:56.942Z,98885.16
2018-09-20T09:40:25.841Z,98860.91
2018-09-20T09:42:54.876Z,98865.30
2018-09-20T09:45:23.680Z,98872.04
2018-09-20T09:47:52.782Z,98877.27
2018-09-20T09:50:21.815Z,98858.96
2018-09-20T09:52:50.635Z,98861.45
2018-09-20T09:55:20.258Z,98860.89
2018-09-20T09:57:55.484Z,98860.45
2018-09-20T10:00:29.551Z,98849.12
2018-09-20T10:02:59.685Z,98855.10
2018-09-20T10:05:28.496Z,98853.55
2018-09-20T10:07:57.659Z,98853.47
2018-09-20T10:10:26.319Z,98858.04
2018-09-20T10:12:55.214Z,98867.57
2018-09-20T10:15:24.098Z,98867.75
2018-09-20T10:17:53.168Z,98859.08
2018-09-20T10:20:21.928Z,98873.05
2018-09-20T10:22:50.678Z,98866.20
2018-09-20T10:25:19.444Z,98873.34
2018-09-20T10:27:48.423Z,98879.78
2018-09-20T10:30:17.440Z,98872.68
2018-09-20T10:32:46.230Z,98884.42
2018-09-20T10:35:15.585Z,98884.88
2018-09-20T10:37:44.290Z,98894.14
2018-09-20T10:40:13.101Z,98913.72
2018-09-20T10:42:41.975Z,98892.92
2018-09-20T10:45:11.785Z,98888.77
2018-09-20T10:47:40.557Z,98900.03
2018-09-20T10:50:09.248Z,98910.97
2018-09-20T10:52:37.937Z,98911.16
2018-09-20T10:55:06.661Z,98915.93
2018-09-20T10:57:36.085Z,98910.50
2018-09-20T11:00:06.173Z,98914.69
2018-09-20T11:02:35.104Z,98916.63
2018-09-20T11:05:03.890Z,98913.63
2018-09-20T11:07:32.927Z,98916.38
2018-09-20T11:10:01.745Z,98920.53
2018-09-20T11:12:30.558Z,98916.36
2018-09-20T11:14:59.406Z,98911.58
2018-09-20T11:17:28.293Z,98921.85
2018-09-20T11:19:57.297Z,98926.81
2018-09-20T11:22:25.982Z,98921.63
2018-09-20T11:24:55.054Z,98922.00
2018-09-20T11:27:23.853Z,98914.11
2018-09-20T11:29:52.717Z,98924.38
2018-09-20T11:32:21.530Z,98909.98
2018-09-20T11:34:50.358Z,98916.70
2018-09-20T11:37:19.288Z,98923.89
2018-09-20T11:39:48.878Z,98923.76
2018-09-20T11:42:17.762Z,98919.08
2018-09-20T11:44:46.643Z,98918.13
2018-09-20T11:47:16.020Z,98926.73
2018-09-20T11:49:44.954Z,98909.64
2018-09-20T11:52:14.085Z,98936.54
2018-09-20T11:54:42.783Z,98950.46
2018-09-20T11:57:12.417Z,98946.36
2018-09-20T11:59:42.125Z,98941.02
2018-09-20T12:02:11.534Z,98957.74
2018-09-20T12:04:40.937Z,98951.23
2018-09-20T12:07:11.420Z,98966.84
2018-09-20T12:09:41.034Z,98961.08
2018-09-20T12:12:09.973Z,98958.30
2018-09-20T12:14:39.386Z,98963.13
2018-09-20T12:17:08.245Z,98958.08
2018-09-20T12:19:37.551Z,98971.05
2018-09-20T12:22:08.039Z,98970.63
2018-09-20T12:24:37.098Z,98978.56
2018-09-20T12:27:05.981Z,98967.20
2018-09-20T12:29:35.157Z,98952.30
2018-09-20T12:32:04.396Z,98961.98
2018-09-20T12:34:33.218Z,98973.94
2018-09-20T12:37:04.652Z,98974.98
2018-09-20T12:39:33.749Z,98975.11
2018-09-20T12:42:02.592Z,98974.80
2018-09-20T12:44:31.376Z,98977.63
2018-09-20T12:47:00.359Z,98978.17
2018-09-20T12:49:29.699Z,98959.27
2018-09-20T12:51:58.971Z,98965.30
2018-09-20T12:54:29.823Z,98978.70
2018-09-20T12:56:58.680Z,98965.58
2018-09-20T12:59:27.338Z,98985.38
2018-09-20T13:01:56.211Z,98982.52
2018-09-20T13:04:25.859Z,98986.17
2018-09-20T13:06:55.007Z,98978.69
2018-09-20T13:09:23.817Z,98988.66
2018-09-20T13:11:53.112Z,99004.41
2018-09-20T13:14:21.900Z,99012.17
2018-09-20T13:16:50.991Z,99002.81
2018-09-20T13:19:19.815Z,99013.44
2018-09-20T13:21:48.818Z,99017.75
2018-09-20T13:24:17.516Z,99010.15
2018-09-20T13:26:46.218Z,99001.93
2018-09-20T13:29:15.250Z,99005.32
2018-09-20T13:31:44.104Z,99010.80
2018-09-20T13:34:13.007Z,98989.72
2018-09-20T13:36:41.886Z,98974.66
2018-09-20T13:39:12.138Z,98990.05
2018-09-20T13:41:41.048Z,99001.77
2018-09-20T13:44:09.933Z,99010.80
2018-09-20T13:46:39.037Z,99010.86
2018-09-20T13:49:07.947Z,99010.98
2018-09-20T13:51:37.024Z,99015.95
2018-09-20T13:54:07.057Z,99003.21
2018-09-20T13:56:36.055Z,99021.42
2018-09-20T13:59:04.955Z,99020.03
2018-09-20T14:01:33.590Z,99024.77
2018-09-20T14:04:02.612Z,99010.97
2018-09-20T14:06:32.227Z,99027.64
2018-09-20T14:09:01.145Z,99027.38
2018-09-20T14:11:30.137Z,99032.14
2018-09-20T14:13:59.662Z,99040.41
2018-09-20T14:16:28.755Z,99036.54
2018-09-20T14:18:57.767Z,99048.77
2018-09-20T14:21:26.639Z,99043.03
2018-09-20T14:23:56.608Z,99062.42
2018-09-20T14:26:25.894Z,99061.14
2018-09-20T14:28:54.827Z,99058.84
2018-09-20T14:31:24.079Z,99056.87
2018-09-20T14:33:53.108Z,99066.14
2018-09-20T14:36:21.865Z,99078.70
2018-09-20T14:38:50.790Z,99080.72
2018-09-20T14:41:19.777Z,99087.66
2018-09-20T14:43:48.986Z,99091.75
2018-09-20T14:46:18.814Z,99090.34
2018-09-20T14:48:47.702Z,99092.80
2018-09-20T14:51:16.598Z,99092.92
2018-09-20T14:53:45.646Z,99085.03
2018-09-20T14:56:14.460Z,99087.70
2018-09-20T14:58:43.358Z,99112.52
2018-09-20T15:01:12.163Z,99123.23
2018-09-20T15:03:41.082Z,99152.28
2018-09-20T15:06:09.988Z,99165.36
2018-09-20T15:08:38.735Z,99180.83
2018-09-20T15:11:07.754Z,99197.13
2018-09-20T15:13:36.601Z,99200.28
2018-09-20T15:16:05.399Z,99208.19
2018-09-20T15:18:34.389Z,99210.60
2018-09-20T15:21:03.227Z,99214.13
2018-09-20T15:23:32.279Z,99234.11
2018-09-20T15:26:01.331Z,99243.94
2018-09-20T15:28:30.056Z,99257.30
2018-09-20T15:30:58.807Z,99256.15
2018-09-20T15:33:27.626Z,99252.20
2018-09-20T15:35:56.710Z,99280.73
2018-09-20T15:38:25.514Z,99285.20
2018-09-20T15:40:54.980Z,99293.53
2018-09-20T15:43:23.774Z,99299.29
2018-09-20T15:45:52.611Z,99292.87
2018-09-20T15:48:21.338Z,99287.34
2018-09-20T15:50:50.077Z,99287.59
2018-09-20T15:53:19.582Z,99294.89
2018-09-20T15:55:48.544Z,99290.02
2018-09-20T15:58:17.297Z,99294.19
2018-09-20T16:00:46.285Z,99282.89
2018-09-20T16:03:15.371Z,99282.89
2018-09-20T16:05:44.304Z,99270.41
2018-09-20T16:08:13.064Z,99262.76
2018-09-20T16:10:41.847Z,99278.23
2018-09-20T16:13:10.614Z,99274.12
2018-09-20T16:15:39.324Z,99284.59
2018-09-20T16:18:08.239Z,99194.77
2018-09-20T16:20:36.974Z,99281.91
2018-09-20T16:23:05.687Z,99284.30
2018-09-20T16:25:34.463Z,99285.51
2018-09-20T16:28:10.488Z,99298.05
2018-09-20T16:31:54.730Z,99293.56
2018-09-20T16:36:40.056Z,99295.06
2018-09-20T16:39:15.028Z,99271.30
2018-09-20T16:41:46.159Z,99250.30
2018-09-20T16:44:14.809Z,99251.68
2018-09-20T16:46:43.729Z,99257.48
2018-09-20T16:49:12.575Z,99230.04
2018-09-20T16:51:41.334Z,99235.67
2018-09-20T16:54:10.121Z,99244.79
2018-09-20T16:56:39.096Z,99242.52
2018-09-20T16:59:08.010Z,99232.59
2018-09-20T17:01:36.850Z,99238.08
2018-09-20T17:04:05.590Z,99249.02
2018-09-20T17:06:34.645Z,99271.86
2018-09-20T17:09:04.353Z,99267.34
2018-09-20T17:11:33.024Z,99271.33
2018-09-20T17:14:02.741Z,99273.12
2018-09-20T17:16:31.525Z,99283.27
2018-09-20T17:19:00.527Z,99282.00
2018-09-20T17:21:29.269Z,99290.28
2018-09-20T17:24:04.741Z,99294.52
2018-09-20T17:26:33.677Z,99296.78
2018-09-20T17:29:02.697Z,99292.61
2018-09-20T17:31:31.392Z,99286.48
2018-09-20T17:34:00.186Z,99273.17
2018-09-20T17:36:29.667Z,99270.22
2018-09-20T17:38:59.512Z,99235.64
2018-09-20T17:41:31.442Z,99256.05
2018-09-20T17:44:06.120Z,99237.62
2018-09-20T17:46:34.954Z,99226.92
2018-09-20T17:49:04.226Z,99227.06
2018-09-20T17:51:33.703Z,99211.66
2018-09-20T17:54:04.114Z,99195.80
2018-09-20T17:56:33.556Z,99209.51
2018-09-20T17:59:03.303Z,99211.34
2018-09-20T18:01:32.060Z,99221.86
2018-09-20T18:04:01.165Z,99236.89
2018-09-20T18:06:31.634Z,99247.45
2018-09-20T18:09:01.122Z,99250.09
2018-09-20T18:11:29.955Z,99255.20
2018-09-20T18:13:59.434Z,99261.53
2018-09-20T18:16:28.285Z,99263.98
2018-09-20T18:18:57.081Z,99286.92
2018-09-20T18:21:25.836Z,99312.33
2018-09-20T18:23:54.736Z,99305.73
2018-09-20T18:26:23.711Z,99294.92
2018-09-20T18:28:52.401Z,99267.42
2018-09-20T18:31:21.311Z,99267.27
2018-09-20T18:33:50.012Z,99265.98
2018-09-20T18:36:18.769Z,99279.38
2018-09-20T18:38:47.955Z,99286.61
2018-09-20T18:41:16.730Z,99288.77
2018-09-20T18:43:45.514Z,99298.85
2018-09-20T18:46:14.546Z,99307.62
2018-09-20T18:48:43.462Z,99299.20
2018-09-20T18:51:12.418Z,99299.77
2018-09-20T18:53:41.448Z,99298.44
2018-09-20T18:56:10.101Z,99300.77
2018-09-20T18:58:39.188Z,99295.31
2018-09-20T19:01:08.209Z,99310.89
2018-09-20T19:03:37.199Z,99300.31
2018-09-20T19:06:06.447Z,99304.25
2018-09-20T19:08:35.508Z,99300.77
2018-09-20T19:11:04.754Z,99291.55
2018-09-20T19:13:33.553Z,99292.73
2018-09-20T19:16:02.784Z,99295.23
2018-09-20T19:18:31.549Z,99307.48
2018-09-20T19:21:00.462Z,99311.09
2018-09-20T19:23:29.088Z,99312.77
2018-09-20T19:25:57.967Z,99312.07
2018-09-20T19:28:26.641Z,99321.19
2018-09-20T19:30:55.474Z,99324.94
2018-09-20T19:33:24.180Z,99325.30
2018-09-20T19:35:53.047Z,99333.22
2018-09-20T19:38:22.043Z,99340.08
2018-09-20T19:40:50.667Z,99331.69
2018-09-20T19:43:19.481Z,99326.08
2018-09-20T19:45:48.243Z,99332.75
2018-09-20T19:48:17.164Z,99331.27
2018-09-20T19:50:46.213Z,99344.55
2018-09-20T19:53:15.161Z,99342.60
2018-09-20T19:55:44.121Z,99358.80
2018-09-20T19:58:13.076Z,99358.80
2018-09-20T20:00:41.781Z,99360.95
2018-09-20T20:03:10.602Z,99356.84
2018-09-20T20:05:39.607Z,99352.38
2018-09-20T20:08:08.225Z,99349.04
2018-09-20T20:10:37.048Z,99352.03
2018-09-20T20:13:05.966Z,99345.27
2018-09-20T20:15:34.744Z,99336.84
2018-09-20T20:18:03.991Z,99342.00
2018-09-20T20:20:33.072Z,99345.64
2018-09-20T20:23:02.311Z,99348.50
2018-09-20T20:25:31.438Z,99349.27
2018-09-20T20:28:00.957Z,99345.63
2018-09-20T20:30:30.305Z,99354.53
2018-09-20T20:32:59.394Z,99350.71
2018-09-20T20:35:28.034Z,99356.84
2018-09-20T20:37:56.988Z,99356.32
2018-09-20T20:40:26.085Z,99347.97
2018-09-20T20:42:55.038Z,99347.11
2018-09-20T20:45:23.741Z,99351.67
2018-09-20T20:47:52.829Z,98752.73
2018-09-20T20:50:21.736Z,99343.88
2018-09-20T20:52:50.715Z,99345.72
2018-09-20T20:55:19.744Z,99345.72
2018-09-20T20:57:48.672Z,99344.26
2018-09-20T21:00:17.617Z,99345.16
2018-09-20T21:02:46.373Z,99342.16
2018-09-20T21:05:15.168Z,99345.16
2018-09-20T21:07:43.834Z,99353.58
2018-09-20T21:10:12.561Z,99350.73
2018-09-20T21:12:41.477Z,99356.52
2018-09-20T21:15:10.550Z,99355.88
2018-09-20T21:17:39.510Z,99361.28
2018-09-20T21:20:08.321Z,99364.84
2018-09-20T21:22:37.067Z,99358.05
2018-09-20T21:25:06.446Z,99370.59
2018-09-20T21:27:35.578Z,99384.58
2018-09-20T21:30:05.180Z,99387.53
2018-09-20T21:32:33.815Z,99376.47
2018-09-20T21:35:02.774Z,99385.06
2018-09-20T21:37:31.643Z,99380.47
2018-09-20T21:40:00.787Z,99382.28
2018-09-20T21:42:29.552Z,99384.27
2018-09-20T21:44:58.726Z,99391.19
2018-09-20T21:47:27.515Z,99390.04
2018-09-20T21:49:56.319Z,99398.46
2018-09-20T21:52:25.324Z,99390.66
2018-09-20T21:54:54.194Z,99395.95
2018-09-20T21:57:23.220Z,99396.16
2018-09-20T21:59:52.241Z,99401.77
2018-09-20T22:02:26.037Z,99413.84
2018-09-20T22:04:54.769Z,99421.08
2018-09-20T22:07:23.558Z,99415.44
2018-09-20T22:09:52.505Z,99419.90
2018-09-20T22:12:21.313Z,99419.27
2018-09-20T22:14:50.133Z,99416.80
2018-09-20T22:17:19.025Z,99424.56
2018-09-20T22:19:47.922Z,99420.45
2018-09-20T22:22:16.772Z,99428.22
2018-09-20T22:24:45.531Z,99429.27
2018-09-20T22:27:14.242Z,99427.45
2018-09-20T22:29:43.157Z,99431.56
2018-09-20T22:32:11.934Z,99433.09
2018-09-20T22:34:40.828Z,99433.92
2018-09-20T22:37:09.543Z,99438.91
2018-09-20T22:39:38.329Z,99451.02
2018-09-20T22:42:07.081Z,99455.83
2018-09-20T22:44:35.728Z,99240.80
2018-09-20T22:47:04.532Z,99458.67
2018-09-20T22:49:34.043Z,99468.73
2018-09-20T22:52:02.803Z,99460.80
2018-09-20T22:54:31.507Z,99467.37
2018-09-20T22:57:00.332Z,99462.58
2018-09-20T22:59:29.122Z,99459.58
2018-09-20T23:01:57.814Z,99475.11
2018-09-20T23:04:26.621Z,99487.49
2018-09-20T23:06:55.388Z,99481.54
2018-09-20T23:09:24.019Z,99490.84
2018-09-20T23:11:52.724Z,99493.20
2018-09-20T23:14:21.425Z,99492.51
2018-09-20T23:16:50.161Z,99505.00
2018-09-20T23:19:19.071Z,99507.39
2018-09-20T23:21:47.789Z,99507.17
2018-09-20T23:24:16.610Z,99514.58
2018-09-20T23:26:45.493Z,99524.10
2018-09-20T23:29:14.323Z,99528.69
2018-09-20T23:31:43.272Z,99546.31
2018-09-20T23:34:11.905Z,99541.73
2018-09-20T23:36:40.858Z,99535.61
2018-09-20T23:39:11.922Z,99539.09
2018-09-20T23:41:40.650Z,99553.81
2018-09-20T23:44:09.897Z,99554.88
2018-09-20T23:46:39.394Z,99564.61
2018-09-20T23:49:08.362Z,99559.76
2018-09-20T23:51:37.399Z,99559.41
2018-09-20T23:54:06.416Z,99563.80
2018-09-20T23:56:35.186Z,99559.00
2018-09-20T23:59:03.875Z,99563.23
